createdAt,value
2018-06-25T00:02:13.018Z,13.50
2018-06-25T00:04:41.440Z,13.40
2018-06-25T00:07:10.132Z,13.50
2018-06-25T00:09:38.626Z,13.50
2018-06-25T00:12:07.330Z,13.50
2018-06-25T00:14:35.846Z,13.50
2018-06-25T00:17:04.503Z,13.50
2018-06-25T00:19:33.132Z,13.50
2018-06-25T00:22:01.610Z,13.50
2018-06-25T00:24:30.582Z,13.50
2018-06-25T00:26:59.088Z,13.50
2018-06-25T00:29:27.642Z,13.50
2018-06-25T00:31:56.123Z,13.50
2018-06-25T00:34:24.981Z,13.50
2018-06-25T00:39:22.041Z,13.50
2018-06-25T00:41:50.536Z,13.50
2018-06-25T00:44:19.030Z,13.50
2018-06-25T00:46:47.597Z,13.50
2018-06-25T00:49:16.103Z,13.50
2018-06-25T00:51:44.596Z,13.50
2018-06-25T00:54:13.050Z,13.50
2018-06-25T00:56:41.860Z,13.50
2018-06-25T00:59:22.139Z,13.50
2018-06-25T01:01:50.625Z,13.50
2018-06-25T01:04:19.149Z,13.50
2018-06-25T01:06:47.981Z,13.50
2018-06-25T01:09:16.577Z,13.50
2018-06-25T01:11:45.446Z,13.50
2018-06-25T01:14:14.052Z,13.40
2018-06-25T01:16:42.474Z,13.40
2018-06-25T01:19:11.393Z,13.40
2018-06-25T01:21:40.090Z,13.40
2018-06-25T01:24:08.550Z,13.40
2018-06-25T01:26:37.234Z,13.40
2018-06-25T01:29:05.996Z,13.40
2018-06-25T01:31:34.472Z,13.40
2018-06-25T01:34:02.956Z,13.40
2018-06-25T01:36:31.364Z,13.40
2018-06-25T01:39:00.124Z,13.40
2018-06-25T01:41:28.629Z,13.40
2018-06-25T01:43:57.376Z,13.40
2018-06-25T01:48:53.968Z,13.40
2018-06-25T01:51:22.822Z,13.40
2018-06-25T01:53:51.617Z,13.40
2018-06-25T01:56:20.096Z,13.40
2018-06-25T01:58:48.554Z,13.40
2018-06-25T02:01:16.997Z,13.40
2018-06-25T02:03:45.464Z,13.40
2018-06-25T02:06:13.974Z,13.40
2018-06-25T02:08:42.432Z,13.40
2018-06-25T02:11:11.321Z,13.40
2018-06-25T02:13:39.886Z,13.40
2018-06-25T02:16:08.447Z,13.50
2018-06-25T02:21:05.557Z,13.50
2018-06-25T02:23:34.572Z,13.40
2018-06-25T02:26:02.999Z,13.40
2018-06-25T02:31:06.448Z,13.50
2018-06-25T02:33:35.305Z,13.50
2018-06-25T02:36:04.132Z,13.50
2018-06-25T02:38:32.656Z,13.50
2018-06-25T02:41:01.269Z,13.50
2018-06-25T02:43:30.105Z,13.50
2018-06-25T02:45:58.774Z,13.50
2018-06-25T02:48:27.664Z,13.50
2018-06-25T02:50:56.139Z,13.50
2018-06-25T02:53:24.969Z,13.50
2018-06-25T02:55:53.814Z,13.60
2018-06-25T02:58:22.564Z,13.60
2018-06-25T03:00:51.459Z,13.60
2018-06-25T03:03:19.955Z,13.60
2018-06-25T03:05:48.746Z,13.60
2018-06-25T03:08:17.252Z,13.60
2018-06-25T03:10:45.926Z,13.60
2018-06-25T03:13:14.817Z,13.60
2018-06-25T03:15:43.410Z,13.60
2018-06-25T03:18:12.384Z,13.60
2018-06-25T03:20:40.966Z,13.60
2018-06-25T03:23:09.824Z,13.70
2018-06-25T03:25:38.266Z,13.60
2018-06-25T03:28:07.124Z,13.70
2018-06-25T03:30:35.631Z,13.70
2018-06-25T03:33:04.070Z,13.70
2018-06-25T03:35:32.628Z,13.70
2018-06-25T03:38:01.198Z,13.70
2018-06-25T03:40:29.614Z,13.70
2018-06-25T03:42:58.250Z,13.70
2018-06-25T03:45:27.076Z,13.70
2018-06-25T03:47:55.596Z,13.70
2018-06-25T03:50:24.097Z,13.60
2018-06-25T03:52:52.579Z,13.60
2018-06-25T03:55:22.170Z,13.60
2018-06-25T03:57:51.372Z,13.60
2018-06-25T04:00:20.057Z,13.60
2018-06-25T04:02:48.639Z,13.60
2018-06-25T04:05:17.121Z,13.60
2018-06-25T04:07:45.698Z,13.60
2018-06-25T04:10:14.196Z,13.60
2018-06-25T04:12:42.682Z,13.60
2018-06-25T04:15:11.196Z,13.60
2018-06-25T04:20:08.100Z,13.60
2018-06-25T04:22:36.667Z,13.60
2018-06-25T04:25:05.226Z,13.60
2018-06-25T04:30:02.249Z,13.60
2018-06-25T04:32:30.919Z,13.60
2018-06-25T04:34:59.394Z,13.60
2018-06-25T04:37:28.182Z,13.70
2018-06-25T04:39:56.681Z,13.70
2018-06-25T04:42:25.229Z,13.70
2018-06-25T04:44:54.086Z,13.70
2018-06-25T04:47:22.607Z,13.70
2018-06-25T04:49:51.298Z,13.70
2018-06-25T04:52:19.882Z,13.70
2018-06-25T04:54:48.534Z,13.70
2018-06-25T04:57:17.353Z,13.70
2018-06-25T04:59:46.577Z,13.70
2018-06-25T05:02:15.652Z,13.70
2018-06-25T05:04:44.308Z,13.80
2018-06-25T05:07:12.906Z,13.80
2018-06-25T05:09:41.359Z,13.80
2018-06-25T05:12:09.882Z,13.80
2018-06-25T05:14:38.958Z,13.80
2018-06-25T05:17:07.736Z,13.80
2018-06-25T05:19:36.660Z,13.80
2018-06-25T05:22:05.220Z,13.80
2018-06-25T05:24:33.704Z,13.80
2018-06-25T05:27:03.314Z,13.80
2018-06-25T05:29:31.896Z,13.80
2018-06-25T05:32:00.808Z,13.90
2018-06-25T05:34:29.290Z,13.90
2018-06-25T05:36:58.250Z,13.90
2018-06-25T05:39:26.754Z,13.90
2018-06-25T05:41:55.231Z,13.90
2018-06-25T05:44:24.355Z,13.90
2018-06-25T05:46:52.876Z,14.00
2018-06-25T05:49:21.760Z,14.00
2018-06-25T05:51:50.376Z,14.00
2018-06-25T05:54:19.160Z,14.00
2018-06-25T05:56:47.728Z,14.00
2018-06-25T05:59:17.157Z,14.00
2018-06-25T06:01:45.724Z,14.00
2018-06-25T06:04:14.450Z,14.10
2018-06-25T06:06:43.104Z,14.10
2018-06-25T06:09:11.621Z,14.10
2018-06-25T06:11:40.465Z,14.10
2018-06-25T06:14:09.726Z,14.10
2018-06-25T06:16:38.362Z,14.10
2018-06-25T06:19:06.818Z,14.10
2018-06-25T06:21:35.581Z,14.10
2018-06-25T06:24:04.336Z,14.20
2018-06-25T06:26:32.788Z,14.20
2018-06-25T06:29:01.660Z,14.20
2018-06-25T06:31:30.430Z,14.20
2018-06-25T06:33:59.224Z,14.30
2018-06-25T06:36:27.771Z,14.30
2018-06-25T06:38:56.264Z,14.30
2018-06-25T06:41:24.721Z,14.30
2018-06-25T06:43:53.145Z,14.30
2018-06-25T06:46:22.004Z,14.40
2018-06-25T06:48:50.526Z,14.40
2018-06-25T06:51:19.002Z,14.40
2018-06-25T06:53:47.758Z,14.40
2018-06-25T06:56:16.272Z,14.40
2018-06-25T06:58:45.045Z,14.50
2018-06-25T07:01:13.513Z,14.50
2018-06-25T07:03:42.454Z,14.50
2018-06-25T07:06:11.218Z,14.60
2018-06-25T07:08:39.733Z,14.60
2018-06-25T07:11:08.275Z,14.70
2018-06-25T07:13:37.156Z,14.70
2018-06-25T07:16:05.690Z,14.70
2018-06-25T07:18:34.170Z,14.70
2018-06-25T07:21:02.655Z,14.70
2018-06-25T07:23:31.194Z,14.70
2018-06-25T07:25:59.632Z,14.70
2018-06-25T07:28:28.212Z,14.70
2018-06-25T07:30:56.997Z,14.70
2018-06-25T07:33:25.610Z,14.60
2018-06-25T07:35:54.416Z,14.70
2018-06-25T07:40:51.733Z,14.60
2018-06-25T07:43:20.603Z,14.70
2018-06-25T07:45:49.082Z,14.70
2018-06-25T07:48:17.854Z,14.70
2018-06-25T07:50:46.340Z,14.70
2018-06-25T07:53:14.860Z,14.80
2018-06-25T07:55:43.319Z,14.90
2018-06-25T07:58:12.153Z,14.90
2018-06-25T08:00:40.598Z,14.90
2018-06-25T08:03:09.085Z,15.00
2018-06-25T08:05:37.504Z,15.10
2018-06-25T08:08:06.510Z,15.10
2018-06-25T08:13:03.254Z,15.20
2018-06-25T08:15:31.773Z,15.30
2018-06-25T08:18:00.244Z,15.30
2018-06-25T08:20:29.081Z,15.30
2018-06-25T08:22:57.763Z,15.30
2018-06-25T08:25:26.616Z,15.40
2018-06-25T08:27:55.172Z,15.40
2018-06-25T08:30:24.264Z,15.40
2018-06-25T08:32:53.409Z,15.40
2018-06-25T08:35:21.878Z,15.40
2018-06-25T08:37:50.485Z,15.40
2018-06-25T08:40:19.591Z,15.40
2018-06-25T08:42:48.088Z,15.40
2018-06-25T08:45:17.056Z,15.40
2018-06-25T08:47:45.924Z,15.50
2018-06-25T08:50:15.046Z,15.50
2018-06-25T08:52:43.688Z,15.50
2018-06-25T08:55:12.194Z,15.60
2018-06-25T08:57:40.635Z,15.70
2018-06-25T09:00:09.161Z,15.70
2018-06-25T09:02:37.789Z,15.60
2018-06-25T09:05:06.316Z,15.50
2018-06-25T09:07:34.776Z,15.60
2018-06-25T09:10:03.461Z,15.60
2018-06-25T09:12:32.280Z,15.60
2018-06-25T09:15:00.748Z,15.70
2018-06-25T09:17:29.238Z,15.70
2018-06-25T09:19:57.798Z,15.80
2018-06-25T09:22:26.324Z,15.90
2018-06-25T09:24:54.864Z,15.90
2018-06-25T09:27:23.732Z,15.90
2018-06-25T09:29:52.232Z,15.90
2018-06-25T09:32:21.208Z,15.90
2018-06-25T09:34:50.550Z,15.90
2018-06-25T09:37:19.325Z,15.90
2018-06-25T09:39:47.772Z,16.00
2018-06-25T09:42:16.358Z,16.00
2018-06-25T09:44:45.135Z,16.00
2018-06-25T09:47:13.609Z,16.00
2018-06-25T09:49:42.294Z,15.90
2018-06-25T09:52:10.802Z,16.00
2018-06-25T09:54:39.362Z,15.90
2018-06-25T09:57:07.814Z,15.90
2018-06-25T09:59:36.338Z,16.00
2018-06-25T10:02:11.626Z,16.00
2018-06-25T10:04:40.455Z,16.00
2018-06-25T10:09:37.566Z,16.00
2018-06-25T10:12:06.340Z,16.10
2018-06-25T10:14:35.329Z,16.10
2018-06-25T10:17:04.362Z,16.10
2018-06-25T10:19:32.836Z,16.10
2018-06-25T10:22:01.366Z,16.10
2018-06-25T10:24:30.146Z,16.10
2018-06-25T10:26:58.954Z,16.00
2018-06-25T10:29:27.682Z,16.00
2018-06-25T10:31:56.475Z,16.00
2018-06-25T10:34:24.978Z,16.10
2018-06-25T10:36:53.496Z,16.20
2018-06-25T10:39:21.988Z,16.10
2018-06-25T10:41:51.136Z,16.10
2018-06-25T10:44:19.646Z,16.10
2018-06-25T10:46:48.260Z,16.10
2018-06-25T10:49:17.128Z,16.20
2018-06-25T10:51:45.891Z,16.20
2018-06-25T10:54:14.372Z,16.10
2018-06-25T10:59:11.676Z,16.20
2018-06-25T11:01:40.158Z,16.30
2018-06-25T11:04:08.860Z,16.40
2018-06-25T11:06:37.411Z,16.40
2018-06-25T11:09:09.079Z,16.30
2018-06-25T11:11:38.094Z,16.30
2018-06-25T11:14:06.980Z,16.40
2018-06-25T11:16:35.418Z,16.30
2018-06-25T11:19:03.958Z,16.30
2018-06-25T11:21:32.787Z,16.30
2018-06-25T11:24:01.827Z,16.30
2018-06-25T11:26:31.096Z,16.40
2018-06-25T11:28:59.588Z,16.30
2018-06-25T11:31:28.021Z,16.40
2018-06-25T11:33:56.744Z,16.50
2018-06-25T11:36:25.169Z,16.50
2018-06-25T11:38:53.654Z,16.70
2018-06-25T11:41:22.357Z,16.80
2018-06-25T11:43:50.869Z,16.90
2018-06-25T11:46:19.332Z,17.00
2018-06-25T11:48:47.832Z,17.10
2018-06-25T11:51:16.488Z,17.20
2018-06-25T11:53:45.014Z,17.30
2018-06-25T11:56:13.834Z,17.40
2018-06-25T11:58:42.296Z,17.40
2018-06-25T12:01:10.878Z,17.50
2018-06-25T12:03:39.414Z,17.60
2018-06-25T12:08:36.300Z,17.70
2018-06-25T12:11:05.108Z,17.70
2018-06-25T12:13:33.878Z,17.70
2018-06-25T12:16:05.297Z,17.90
2018-06-25T12:18:36.290Z,18.10
2018-06-25T12:21:05.280Z,18.30
2018-06-25T12:23:33.831Z,18.30
2018-06-25T12:26:02.493Z,18.10
2018-06-25T12:28:31.109Z,17.90
2018-06-25T12:31:00.392Z,17.90
2018-06-25T12:33:29.586Z,18.00
2018-06-25T12:35:58.552Z,18.00
2018-06-25T12:38:27.361Z,18.10
2018-06-25T12:40:55.858Z,18.30
2018-06-25T12:43:24.327Z,18.50
2018-06-25T12:45:53.442Z,18.50
2018-06-25T12:48:22.156Z,18.40
2018-06-25T12:50:50.638Z,18.20
2018-06-25T12:53:19.617Z,18.40
2018-06-25T12:55:48.082Z,18.40
2018-06-25T12:58:16.581Z,18.40
2018-06-25T13:00:45.421Z,18.40
2018-06-25T13:03:14.160Z,18.40
2018-06-25T13:05:42.583Z,18.50
2018-06-25T13:08:11.072Z,18.50
2018-06-25T13:10:39.681Z,18.70
2018-06-25T13:13:08.183Z,19.00
2018-06-25T13:15:36.741Z,19.00
2018-06-25T13:18:05.343Z,19.00
2018-06-25T13:20:34.192Z,19.00
2018-06-25T13:23:02.900Z,19.10
2018-06-25T13:25:31.357Z,19.30
2018-06-25T13:28:00.307Z,19.30
2018-06-25T13:30:29.113Z,19.40
2018-06-25T13:32:57.822Z,19.40
2018-06-25T13:35:26.707Z,19.30
2018-06-25T13:37:55.230Z,19.30
2018-06-25T13:40:23.723Z,19.20
2018-06-25T13:42:52.191Z,19.20
2018-06-25T13:45:20.762Z,19.20
2018-06-25T13:47:49.648Z,19.30
2018-06-25T13:50:18.237Z,19.40
2018-06-25T13:52:46.785Z,19.20
2018-06-25T13:55:15.683Z,19.40
2018-06-25T13:57:44.359Z,19.50
2018-06-25T14:00:13.203Z,19.40
2018-06-25T14:02:41.792Z,19.40
2018-06-25T14:05:10.258Z,19.50
2018-06-25T14:07:38.786Z,19.60
2018-06-25T14:12:36.163Z,19.50
2018-06-25T14:15:05.310Z,19.40
2018-06-25T14:17:33.832Z,19.20
2018-06-25T14:20:02.439Z,19.20
2018-06-25T14:22:31.278Z,19.20
2018-06-25T14:25:00.890Z,19.10
2018-06-25T14:27:35.038Z,19.10
2018-06-25T14:30:04.189Z,19.00
2018-06-25T14:32:33.978Z,18.80
2018-06-25T14:35:08.412Z,18.80
2018-06-25T14:37:37.112Z,18.60
2018-06-25T14:40:05.978Z,18.60
2018-06-25T14:42:34.441Z,18.50
2018-06-25T14:45:02.945Z,18.50
2018-06-25T14:47:31.472Z,18.60
2018-06-25T14:52:28.253Z,18.30
2018-06-25T14:57:26.018Z,18.20
2018-06-25T14:59:55.014Z,18.20
2018-06-25T15:02:23.865Z,18.10
2018-06-25T15:04:52.408Z,18.00
2018-06-25T15:07:21.220Z,17.90
2018-06-25T15:09:50.089Z,17.80
2018-06-25T15:12:18.579Z,17.70
2018-06-25T15:14:47.124Z,17.70
2018-06-25T15:17:15.753Z,17.60
2018-06-25T15:19:44.223Z,17.60
2018-06-25T15:22:12.670Z,17.60
2018-06-25T15:24:41.187Z,17.50
2018-06-25T15:27:09.665Z,17.30
2018-06-25T15:29:38.181Z,17.30
2018-06-25T15:32:06.835Z,17.20
2018-06-25T15:34:35.357Z,17.20
2018-06-25T15:37:03.948Z,17.10
2018-06-25T15:44:29.335Z,17.10
2018-06-25T15:46:58.113Z,17.00
2018-06-25T15:49:26.590Z,17.00
2018-06-25T15:51:55.413Z,16.80
2018-06-25T15:54:23.987Z,16.70
2018-06-25T15:56:53.170Z,16.70
2018-06-25T15:59:22.015Z,16.80
2018-06-25T16:01:50.550Z,16.70
2018-06-25T16:04:19.045Z,16.60
2018-06-25T16:06:47.696Z,16.50
2018-06-25T16:09:16.131Z,16.50
2018-06-25T16:11:45.213Z,16.50
2018-06-25T16:14:13.742Z,16.30
2018-06-25T16:16:42.246Z,16.40
2018-06-25T16:19:11.080Z,16.40
2018-06-25T16:21:39.633Z,16.40
2018-06-25T16:24:08.385Z,16.40
2018-06-25T16:26:37.394Z,16.30
2018-06-25T16:29:05.950Z,16.30
2018-06-25T16:34:03.159Z,16.10
2018-06-25T16:36:32.023Z,16.10
2018-06-25T16:39:00.874Z,15.90
2018-06-25T16:41:29.795Z,15.90
2018-06-25T16:43:58.245Z,15.90
2018-06-25T16:46:27.017Z,15.90
2018-06-25T16:48:55.593Z,15.80
2018-06-25T16:51:24.379Z,15.80
2018-06-25T16:53:52.942Z,15.60
2018-06-25T16:56:21.471Z,15.60
2018-06-25T16:58:50.517Z,15.60
2018-06-25T17:01:19.012Z,15.50
2018-06-25T17:03:47.488Z,15.50
2018-06-25T17:06:16.433Z,15.50
2018-06-25T17:08:44.957Z,15.40
2018-06-25T17:11:13.517Z,15.40
2018-06-25T17:13:42.024Z,15.30
2018-06-25T17:16:10.507Z,15.30
2018-06-25T17:18:38.976Z,15.30
2018-06-25T17:21:07.867Z,15.40
2018-06-25T17:23:36.694Z,15.20
2018-06-25T17:26:05.351Z,15.20
2018-06-25T17:28:33.825Z,15.20
2018-06-25T17:31:02.456Z,15.20
2018-06-25T17:33:30.977Z,15.20
2018-06-25T17:35:59.580Z,15.20
2018-06-25T17:38:28.209Z,15.10
2018-06-25T17:40:56.759Z,15.00
2018-06-25T17:43:25.631Z,15.00
2018-06-25T17:45:54.242Z,15.00
2018-06-25T17:48:22.744Z,14.90
2018-06-25T17:50:51.274Z,14.90
2018-06-25T17:53:20.056Z,15.00
2018-06-25T17:55:49.194Z,15.00
2018-06-25T17:58:18.103Z,15.00
2018-06-25T18:00:46.924Z,14.90
2018-06-25T18:03:15.890Z,14.90
2018-06-25T18:05:44.597Z,14.80
2018-06-25T18:08:13.438Z,14.80
2018-06-25T18:10:41.965Z,14.70
2018-06-25T18:13:11.043Z,14.70
2018-06-25T18:15:40.165Z,14.80
2018-06-25T18:18:08.997Z,14.80
2018-06-25T18:20:37.671Z,14.70
2018-06-25T18:23:06.433Z,14.60
2018-06-25T18:25:35.299Z,14.60
2018-06-25T18:28:03.895Z,14.60
2018-06-25T18:30:32.446Z,14.60
2018-06-25T18:33:01.759Z,14.50
2018-06-25T18:37:58.486Z,14.40
2018-06-25T18:42:55.233Z,14.30
2018-06-25T18:45:23.697Z,14.40
2018-06-25T18:47:52.737Z,14.40
2018-06-25T18:50:21.597Z,14.40
2018-06-25T18:52:50.072Z,14.40
2018-06-25T18:55:18.564Z,14.40
2018-06-25T18:57:47.124Z,14.30
2018-06-25T19:00:15.847Z,14.30
2018-06-25T19:02:44.719Z,14.30
2018-06-25T19:05:13.210Z,14.30
2018-06-25T19:07:41.783Z,14.30
2018-06-25T19:10:10.339Z,14.30
2018-06-25T19:12:38.948Z,14.30
2018-06-25T19:15:07.903Z,14.30
2018-06-25T19:17:36.440Z,14.30
2018-06-25T19:20:05.769Z,14.30
2018-06-25T19:22:34.616Z,14.30
2018-06-25T19:25:03.193Z,14.30
2018-06-25T19:27:31.729Z,14.30
2018-06-25T19:30:00.287Z,14.20
2018-06-25T19:34:57.593Z,14.30
2018-06-25T19:37:26.143Z,14.20
2018-06-25T19:42:23.268Z,14.20
2018-06-25T19:44:51.803Z,14.10
2018-06-25T19:47:20.519Z,14.10
2018-06-25T19:49:49.013Z,14.10
2018-06-25T19:52:17.565Z,14.00
2018-06-25T19:54:46.445Z,14.00
2018-06-25T19:57:14.954Z,14.00
2018-06-25T19:59:44.242Z,14.00
2018-06-25T20:02:12.757Z,14.00
2018-06-25T20:04:41.387Z,14.00
2018-06-25T20:07:09.892Z,13.90
2018-06-25T20:09:38.460Z,13.90
2018-06-25T20:12:07.656Z,13.80
2018-06-25T20:14:36.218Z,13.80
2018-06-25T20:17:05.471Z,13.80
2018-06-25T20:19:34.208Z,13.90
2018-06-25T20:22:02.705Z,13.80
2018-06-25T20:24:31.330Z,13.80
2018-06-25T20:26:59.855Z,13.80
2018-06-25T20:29:28.400Z,13.80
2018-06-25T20:31:56.877Z,13.70
2018-06-25T20:34:26.259Z,13.70
2018-06-25T20:36:55.269Z,13.70
2018-06-25T20:39:23.727Z,13.60
2018-06-25T20:41:52.895Z,13.60
2018-06-25T20:44:21.397Z,13.60
2018-06-25T20:46:50.225Z,13.60
2018-06-25T20:49:18.776Z,13.60
2018-06-25T20:51:47.936Z,13.60
2018-06-25T20:54:17.077Z,13.60
2018-06-25T20:56:45.606Z,13.60
2018-06-25T20:59:14.465Z,13.60
2018-06-25T21:01:43.294Z,13.50
2018-06-25T21:04:12.531Z,13.50
2018-06-25T21:06:41.432Z,13.60
2018-06-25T21:09:11.587Z,13.50
2018-06-25T21:11:40.947Z,13.40
2018-06-25T21:14:09.412Z,13.50
2018-06-25T21:16:37.932Z,13.40
2018-06-25T21:19:06.564Z,13.40
2018-06-25T21:21:35.137Z,13.40
2018-06-25T21:24:03.988Z,13.40
2018-06-25T21:26:32.813Z,13.40
2018-06-25T21:29:01.367Z,13.40
2018-06-25T21:31:29.910Z,13.40
2018-06-25T21:33:58.406Z,13.50
2018-06-25T21:36:26.944Z,13.50
2018-06-25T21:38:55.449Z,13.50
2018-06-25T21:41:24.231Z,13.50
2018-06-25T21:43:53.091Z,13.50
2018-06-25T21:46:21.940Z,13.40
2018-06-25T21:48:50.783Z,13.40
2018-06-25T21:51:19.561Z,13.40
2018-06-25T21:53:48.045Z,13.40
2018-06-25T21:56:16.809Z,13.40
2018-06-25T21:58:45.655Z,13.40
2018-06-25T22:01:14.257Z,13.40
2018-06-25T22:03:42.759Z,13.40
2018-06-25T22:06:11.297Z,13.50
2018-06-25T22:08:40.101Z,13.40
2018-06-25T22:11:08.673Z,13.40
2018-06-25T22:13:37.837Z,13.40
2018-06-25T22:16:06.359Z,13.40
2018-06-25T22:18:35.415Z,13.40
2018-06-25T22:21:04.433Z,13.40
2018-06-25T22:23:33.243Z,13.40
2018-06-25T22:26:01.823Z,13.40
2018-06-25T22:28:30.673Z,13.40
2018-06-25T22:30:59.264Z,13.40
2018-06-25T22:33:27.930Z,13.30
2018-06-25T22:35:56.417Z,13.20
2018-06-25T22:38:25.035Z,13.20
2018-06-25T22:40:53.509Z,13.20
2018-06-25T22:43:22.284Z,13.20
2018-06-25T22:45:50.819Z,13.20
2018-06-25T22:48:19.308Z,13.20
2018-06-25T22:50:47.708Z,13.20
2018-06-25T22:53:16.234Z,13.20
2018-06-25T22:55:44.774Z,13.20
2018-06-25T22:58:13.592Z,13.20
2018-06-25T23:00:42.503Z,13.20
2018-06-25T23:03:11.064Z,13.20
2018-06-25T23:05:39.663Z,13.20
2018-06-25T23:08:08.230Z,13.20
2018-06-25T23:10:37.104Z,13.20
2018-06-25T23:13:06.057Z,13.20
2018-06-25T23:15:34.583Z,13.20
2018-06-25T23:18:03.177Z,13.20
2018-06-25T23:20:31.806Z,13.20
2018-06-25T23:23:00.651Z,13.20
2018-06-25T23:25:29.137Z,13.20
2018-06-25T23:27:57.601Z,13.10
2018-06-25T23:30:26.618Z,13.10
2018-06-25T23:32:55.513Z,13.10
2018-06-25T23:35:23.943Z,13.10
2018-06-25T23:37:52.772Z,13.00
2018-06-25T23:40:23.433Z,13.00
2018-06-25T23:42:51.945Z,13.00
2018-06-25T23:45:20.801Z,13.00
2018-06-25T23:47:49.380Z,13.00
2018-06-25T23:50:17.844Z,13.10
2018-06-25T23:52:46.328Z,13.10
2018-06-25T23:57:50.388Z,13.10
